sensor_id;sensor_type;location;lat;lon;timestamp;P1;durP1;ratioP1;P2;durP2;ratioP2
3307;SDS011;1666;48.898;9.182;2022-12-18T00:00:50;110.22;;;47.25;;
3307;SDS011;1666;48.898;9.182;2022-12-18T00:03:20;101.10;;;43.80;;
3307;SDS011;1666;48.898;9.182;2022-12-18T00:05:50;106.68;;;44.08;;
3307;SDS011;1666;48.898;9.182;2022-12-18T00:08:21;100.97;;;45.35;;
3307;SDS011;1666;48.898;9.182;2022-12-18T00:10:51;97.53;;;41.90;;
3307;SDS011;1666;48.898;9.182;2022-12-18T00:13:28;104.85;;;44.30;;
3307;SDS011;1666;48.898;9.182;2022-12-18T00:16:00;103.50;;;45.60;;
3307;SDS011;1666;48.898;9.182;2022-12-18T00:18:31;104.20;;;44.90;;
3307;SDS011;1666;48.898;9.182;2022-12-18T00:21:03;102.50;;;43.88;;
3307;SDS011;1666;48.898;9.182;2022-12-18T00:23:34;105.45;;;45.97;;
3307;SDS011;1666;48.898;9.182;2022-12-18T00:26:07;102.63;;;44.70;;
3307;SDS011;1666;48.898;9.182;2022-12-18T00:28:43;121.13;;;44.95;;
3307;SDS011;1666;48.898;9.182;2022-12-18T00:31:14;100.85;;;45.25;;
3307;SDS011;1666;48.898;9.182;2022-12-18T00:33:45;108.05;;;44.03;;
3307;SDS011;1666;48.898;9.182;2022-12-18T00:36:21;103.80;;;44.97;;
3307;SDS011;1666;48.898;9.182;2022-12-18T00:38:53;107.15;;;45.40;;
3307;SDS011;1666;48.898;9.182;2022-12-18T00:41:24;99.70;;;43.45;;
3307;SDS011;1666;48.898;9.182;2022-12-18T00:44:10;98.68;;;43.78;;
3307;SDS011;1666;48.898;9.182;2022-12-18T00:46:41;106.35;;;45.85;;
3307;SDS011;1666;48.898;9.182;2022-12-18T00:49:12;101.85;;;45.38;;
3307;SDS011;1666;48.898;9.182;2022-12-18T00:51:42;109.35;;;46.05;;
3307;SDS011;1666;48.898;9.182;2022-12-18T00:54:12;94.68;;;43.35;;
3307;SDS011;1666;48.898;9.182;2022-12-18T00:56:42;104.88;;;46.42;;
3307;SDS011;1666;48.898;9.182;2022-12-18T00:59:18;99.97;;;44.95;;
3307;SDS011;1666;48.898;9.182;2022-12-18T01:01:48;114.82;;;46.40;;
3307;SDS011;1666;48.898;9.182;2022-12-18T01:04:18;116.93;;;47.72;;
3307;SDS011;1666;48.898;9.182;2022-12-18T01:06:48;114.05;;;48.47;;
3307;SDS011;1666;48.898;9.182;2022-12-18T01:09:18;106.18;;;45.60;;
3307;SDS011;1666;48.898;9.182;2022-12-18T01:11:47;104.53;;;46.38;;
3307;SDS011;1666;48.898;9.182;2022-12-18T01:14:20;100.57;;;45.97;;
3307;SDS011;1666;48.898;9.182;2022-12-18T01:16:50;106.05;;;45.92;;
3307;SDS011;1666;48.898;9.182;2022-12-18T01:19:20;113.03;;;46.25;;
3307;SDS011;1666;48.898;9.182;2022-12-18T01:21:50;103.68;;;46.05;;
3307;SDS011;1666;48.898;9.182;2022-12-18T01:24:20;117.45;;;48.08;;
3307;SDS011;1666;48.898;9.182;2022-12-18T01:26:50;106.85;;;46.20;;
3307;SDS011;1666;48.898;9.182;2022-12-18T01:29:22;106.07;;;46.00;;
3307;SDS011;1666;48.898;9.182;2022-12-18T01:31:54;108.55;;;46.72;;
3307;SDS011;1666;48.898;9.182;2022-12-18T01:34:24;108.75;;;47.60;;
3307;SDS011;1666;48.898;9.182;2022-12-18T01:36:54;114.65;;;46.00;;
3307;SDS011;1666;48.898;9.182;2022-12-18T01:39:25;105.63;;;45.92;;
3307;SDS011;1666;48.898;9.182;2022-12-18T01:41:54;101.88;;;45.58;;
3307;SDS011;1666;48.898;9.182;2022-12-18T01:47:28;105.25;;;46.65;;
3307;SDS011;1666;48.898;9.182;2022-12-18T01:50:03;108.55;;;45.95;;
3307;SDS011;1666;48.898;9.182;2022-12-18T01:52:36;105.85;;;45.10;;
3307;SDS011;1666;48.898;9.182;2022-12-18T01:55:11;110.55;;;46.13;;
3307;SDS011;1666;48.898;9.182;2022-12-18T01:57:43;106.15;;;42.70;;
3307;SDS011;1666;48.898;9.182;2022-12-18T02:00:17;100.35;;;43.97;;
3307;SDS011;1666;48.898;9.182;2022-12-18T02:02:49;104.43;;;45.00;;
3307;SDS011;1666;48.898;9.182;2022-12-18T02:05:21;107.38;;;44.95;;
3307;SDS011;1666;48.898;9.182;2022-12-18T02:08:01;96.43;;;42.75;;
3307;SDS011;1666;48.898;9.182;2022-12-18T02:10:39;106.10;;;43.60;;
3307;SDS011;1666;48.898;9.182;2022-12-18T02:13:18;92.07;;;41.95;;
3307;SDS011;1666;48.898;9.182;2022-12-18T02:15:58;93.50;;;42.30;;
3307;SDS011;1666;48.898;9.182;2022-12-18T02:18:32;100.40;;;42.22;;
3307;SDS011;1666;48.898;9.182;2022-12-18T02:21:08;98.55;;;42.60;;
3307;SDS011;1666;48.898;9.182;2022-12-18T02:23:47;100.63;;;43.05;;
3307;SDS011;1666;48.898;9.182;2022-12-18T02:26:28;92.03;;;40.50;;
3307;SDS011;1666;48.898;9.182;2022-12-18T02:29:05;101.00;;;40.65;;
3307;SDS011;1666;48.898;9.182;2022-12-18T02:31:42;97.32;;;40.10;;
3307;SDS011;1666;48.898;9.182;2022-12-18T02:34:14;91.70;;;38.95;;
3307;SDS011;1666;48.898;9.182;2022-12-18T02:36:46;100.05;;;40.25;;
3307;SDS011;1666;48.898;9.182;2022-12-18T02:39:19;97.93;;;42.05;;
3307;SDS011;1666;48.898;9.182;2022-12-18T02:41:53;91.15;;;38.80;;
3307;SDS011;1666;48.898;9.182;2022-12-18T02:44:23;92.63;;;39.28;;
3307;SDS011;1666;48.898;9.182;2022-12-18T02:46:53;91.40;;;39.38;;
3307;SDS011;1666;48.898;9.182;2022-12-18T02:49:26;90.70;;;39.97;;
3307;SDS011;1666;48.898;9.182;2022-12-18T02:52:05;93.03;;;37.40;;
3307;SDS011;1666;48.898;9.182;2022-12-18T02:54:47;86.07;;;37.92;;
3307;SDS011;1666;48.898;9.182;2022-12-18T02:57:32;95.68;;;36.92;;
3307;SDS011;1666;48.898;9.182;2022-12-18T03:00:06;84.78;;;37.47;;
3307;SDS011;1666;48.898;9.182;2022-12-18T03:02:41;86.63;;;37.70;;
3307;SDS011;1666;48.898;9.182;2022-12-18T03:05:17;92.65;;;39.60;;
3307;SDS011;1666;48.898;9.182;2022-12-18T03:07:51;89.82;;;38.65;;
3307;SDS011;1666;48.898;9.182;2022-12-18T03:10:28;88.95;;;37.53;;
3307;SDS011;1666;48.898;9.182;2022-12-18T03:13:04;84.53;;;37.20;;
3307;SDS011;1666;48.898;9.182;2022-12-18T03:15:41;87.82;;;36.92;;
3307;SDS011;1666;48.898;9.182;2022-12-18T03:18:15;81.43;;;34.95;;
3307;SDS011;1666;48.898;9.182;2022-12-18T03:20:49;81.28;;;36.67;;
3307;SDS011;1666;48.898;9.182;2022-12-18T03:23:20;84.95;;;36.58;;
3307;SDS011;1666;48.898;9.182;2022-12-18T03:25:54;90.53;;;38.10;;
3307;SDS011;1666;48.898;9.182;2022-12-18T03:28:36;88.38;;;37.45;;
3307;SDS011;1666;48.898;9.182;2022-12-18T03:31:09;82.95;;;37.13;;
3307;SDS011;1666;48.898;9.182;2022-12-18T03:33:43;87.40;;;36.60;;
3307;SDS011;1666;48.898;9.182;2022-12-18T03:36:16;91.97;;;38.20;;
3307;SDS011;1666;48.898;9.182;2022-12-18T03:38:46;92.38;;;37.53;;
3307;SDS011;1666;48.898;9.182;2022-12-18T03:41:18;77.93;;;33.58;;
3307;SDS011;1666;48.898;9.182;2022-12-18T03:43:58;87.28;;;36.88;;
3307;SDS011;1666;48.898;9.182;2022-12-18T03:46:38;80.70;;;35.80;;
3307;SDS011;1666;48.898;9.182;2022-12-18T03:49:13;84.25;;;35.58;;
3307;SDS011;1666;48.898;9.182;2022-12-18T03:51:54;79.55;;;33.70;;
3307;SDS011;1666;48.898;9.182;2022-12-18T03:54:31;78.45;;;34.08;;
3307;SDS011;1666;48.898;9.182;2022-12-18T03:57:04;78.05;;;34.63;;
3307;SDS011;1666;48.898;9.182;2022-12-18T03:59:41;74.45;;;35.15;;
3307;SDS011;1666;48.898;9.182;2022-12-18T04:02:14;79.38;;;35.55;;
3307;SDS011;1666;48.898;9.182;2022-12-18T04:04:45;81.07;;;33.60;;
3307;SDS011;1666;48.898;9.182;2022-12-18T04:07:16;69.78;;;32.85;;
3307;SDS011;1666;48.898;9.182;2022-12-18T04:09:48;68.07;;;32.08;;
3307;SDS011;1666;48.898;9.182;2022-12-18T04:12:20;77.70;;;34.90;;
3307;SDS011;1666;48.898;9.182;2022-12-18T04:14:55;72.22;;;31.92;;
3307;SDS011;1666;48.898;9.182;2022-12-18T04:17:25;70.35;;;32.20;;
3307;SDS011;1666;48.898;9.182;2022-12-18T04:19:55;70.47;;;32.78;;
3307;SDS011;1666;48.898;9.182;2022-12-18T04:22:25;73.53;;;33.30;;
3307;SDS011;1666;48.898;9.182;2022-12-18T04:24:55;77.13;;;33.00;;
3307;SDS011;1666;48.898;9.182;2022-12-18T04:27:25;77.15;;;33.47;;
3307;SDS011;1666;48.898;9.182;2022-12-18T04:29:57;73.05;;;31.42;;
3307;SDS011;1666;48.898;9.182;2022-12-18T04:32:27;81.65;;;33.85;;
3307;SDS011;1666;48.898;9.182;2022-12-18T04:34:57;75.60;;;34.25;;
3307;SDS011;1666;48.898;9.182;2022-12-18T04:37:27;71.95;;;33.53;;
3307;SDS011;1666;48.898;9.182;2022-12-18T04:39:57;80.45;;;33.38;;
3307;SDS011;1666;48.898;9.182;2022-12-18T04:42:27;71.13;;;32.20;;
3307;SDS011;1666;48.898;9.182;2022-12-18T04:44:59;80.72;;;33.60;;
3307;SDS011;1666;48.898;9.182;2022-12-18T04:47:29;75.43;;;33.38;;
3307;SDS011;1666;48.898;9.182;2022-12-18T04:50:00;70.82;;;33.05;;
3307;SDS011;1666;48.898;9.182;2022-12-18T04:52:30;75.43;;;30.15;;
3307;SDS011;1666;48.898;9.182;2022-12-18T04:54:59;67.05;;;32.17;;
3307;SDS011;1666;48.898;9.182;2022-12-18T04:57:29;72.40;;;31.85;;
3307;SDS011;1666;48.898;9.182;2022-12-18T05:00:02;72.15;;;32.45;;
3307;SDS011;1666;48.898;9.182;2022-12-18T05:02:34;71.68;;;30.90;;
3307;SDS011;1666;48.898;9.182;2022-12-18T05:05:04;70.95;;;30.98;;
3307;SDS011;1666;48.898;9.182;2022-12-18T05:07:38;71.97;;;31.17;;
3307;SDS011;1666;48.898;9.182;2022-12-18T05:10:08;72.82;;;31.67;;
3307;SDS011;1666;48.898;9.182;2022-12-18T05:12:38;70.68;;;32.40;;
3307;SDS011;1666;48.898;9.182;2022-12-18T05:15:29;82.25;;;32.88;;
3307;SDS011;1666;48.898;9.182;2022-12-18T05:18:01;73.25;;;31.98;;
3307;SDS011;1666;48.898;9.182;2022-12-18T05:20:31;80.55;;;35.08;;
3307;SDS011;1666;48.898;9.182;2022-12-18T05:23:01;82.30;;;31.42;;
3307;SDS011;1666;48.898;9.182;2022-12-18T05:25:31;76.97;;;31.67;;
3307;SDS011;1666;48.898;9.182;2022-12-18T05:28:01;77.55;;;33.47;;
3307;SDS011;1666;48.898;9.182;2022-12-18T05:30:34;70.65;;;32.38;;
3307;SDS011;1666;48.898;9.182;2022-12-18T05:33:03;72.75;;;31.67;;
3307;SDS011;1666;48.898;9.182;2022-12-18T05:35:33;68.97;;;33.25;;
3307;SDS011;1666;48.898;9.182;2022-12-18T05:38:03;75.32;;;32.30;;
3307;SDS011;1666;48.898;9.182;2022-12-18T05:40:33;73.93;;;32.28;;
3307;SDS011;1666;48.898;9.182;2022-12-18T05:43:03;79.93;;;33.65;;
3307;SDS011;1666;48.898;9.182;2022-12-18T05:45:36;84.38;;;33.38;;
3307;SDS011;1666;48.898;9.182;2022-12-18T05:48:06;77.43;;;32.70;;
3307;SDS011;1666;48.898;9.182;2022-12-18T05:50:37;75.10;;;31.58;;
3307;SDS011;1666;48.898;9.182;2022-12-18T05:53:08;76.45;;;33.33;;
3307;SDS011;1666;48.898;9.182;2022-12-18T05:55:38;80.03;;;32.33;;
3307;SDS011;1666;48.898;9.182;2022-12-18T05:58:09;76.00;;;33.15;;
3307;SDS011;1666;48.898;9.182;2022-12-18T06:00:44;80.05;;;34.13;;
3307;SDS011;1666;48.898;9.182;2022-12-18T06:03:15;71.50;;;33.15;;
3307;SDS011;1666;48.898;9.182;2022-12-18T06:05:45;72.72;;;32.63;;
3307;SDS011;1666;48.898;9.182;2022-12-18T06:08:15;74.70;;;33.10;;
3307;SDS011;1666;48.898;9.182;2022-12-18T06:10:49;72.45;;;32.17;;
3307;SDS011;1666;48.898;9.182;2022-12-18T06:13:21;73.07;;;30.90;;
3307;SDS011;1666;48.898;9.182;2022-12-18T06:15:53;79.47;;;31.33;;
3307;SDS011;1666;48.898;9.182;2022-12-18T06:18:23;73.65;;;32.53;;
3307;SDS011;1666;48.898;9.182;2022-12-18T06:20:56;71.43;;;31.65;;
3307;SDS011;1666;48.898;9.182;2022-12-18T06:23:26;72.10;;;32.25;;
3307;SDS011;1666;48.898;9.182;2022-12-18T06:25:56;78.20;;;32.15;;
3307;SDS011;1666;48.898;9.182;2022-12-18T06:28:26;67.57;;;31.67;;
3307;SDS011;1666;48.898;9.182;2022-12-18T06:30:58;64.50;;;30.27;;
3307;SDS011;1666;48.898;9.182;2022-12-18T06:33:28;73.85;;;33.75;;
3307;SDS011;1666;48.898;9.182;2022-12-18T06:35:59;74.07;;;31.52;;
3307;SDS011;1666;48.898;9.182;2022-12-18T06:38:30;70.55;;;32.53;;
3307;SDS011;1666;48.898;9.182;2022-12-18T06:41:05;70.40;;;30.80;;
3307;SDS011;1666;48.898;9.182;2022-12-18T06:43:36;67.20;;;29.70;;
3307;SDS011;1666;48.898;9.182;2022-12-18T06:46:09;70.85;;;31.67;;
3307;SDS011;1666;48.898;9.182;2022-12-18T06:48:40;66.32;;;30.10;;
3307;SDS011;1666;48.898;9.182;2022-12-18T06:51:10;67.47;;;29.75;;
3307;SDS011;1666;48.898;9.182;2022-12-18T06:53:40;70.72;;;30.65;;
3307;SDS011;1666;48.898;9.182;2022-12-18T06:56:09;69.03;;;30.83;;
3307;SDS011;1666;48.898;9.182;2022-12-18T06:58:39;63.45;;;30.05;;
3307;SDS011;1666;48.898;9.182;2022-12-18T07:01:12;71.65;;;31.02;;
3307;SDS011;1666;48.898;9.182;2022-12-18T07:03:43;75.07;;;32.28;;
3307;SDS011;1666;48.898;9.182;2022-12-18T07:06:13;70.28;;;31.50;;
3307;SDS011;1666;48.898;9.182;2022-12-18T07:08:44;68.72;;;30.73;;
3307;SDS011;1666;48.898;9.182;2022-12-18T07:11:14;67.40;;;30.98;;
3307;SDS011;1666;48.898;9.182;2022-12-18T07:13:45;65.78;;;30.67;;
3307;SDS011;1666;48.898;9.182;2022-12-18T07:16:19;64.22;;;30.25;;
3307;SDS011;1666;48.898;9.182;2022-12-18T07:18:51;69.68;;;31.38;;
3307;SDS011;1666;48.898;9.182;2022-12-18T07:21:22;65.05;;;30.35;;
3307;SDS011;1666;48.898;9.182;2022-12-18T07:23:52;65.70;;;32.08;;
3307;SDS011;1666;48.898;9.182;2022-12-18T07:26:22;67.60;;;30.25;;
3307;SDS011;1666;48.898;9.182;2022-12-18T07:28:57;69.40;;;29.75;;
3307;SDS011;1666;48.898;9.182;2022-12-18T07:31:30;67.45;;;31.15;;
3307;SDS011;1666;48.898;9.182;2022-12-18T07:34:00;61.67;;;28.95;;
3307;SDS011;1666;48.898;9.182;2022-12-18T07:36:30;61.38;;;29.55;;
3307;SDS011;1666;48.898;9.182;2022-12-18T07:38:59;63.78;;;28.90;;
3307;SDS011;1666;48.898;9.182;2022-12-18T07:41:29;60.20;;;29.55;;
3307;SDS011;1666;48.898;9.182;2022-12-18T07:43:59;64.15;;;29.33;;
3307;SDS011;1666;48.898;9.182;2022-12-18T07:46:32;61.13;;;28.67;;
3307;SDS011;1666;48.898;9.182;2022-12-18T07:49:02;62.38;;;29.33;;
3307;SDS011;1666;48.898;9.182;2022-12-18T07:51:32;66.68;;;29.73;;
3307;SDS011;1666;48.898;9.182;2022-12-18T07:54:01;55.63;;;28.10;;
3307;SDS011;1666;48.898;9.182;2022-12-18T07:56:31;66.82;;;29.10;;
3307;SDS011;1666;48.898;9.182;2022-12-18T07:59:01;61.20;;;27.52;;
3307;SDS011;1666;48.898;9.182;2022-12-18T08:01:34;62.40;;;28.90;;
3307;SDS011;1666;48.898;9.182;2022-12-18T08:04:04;65.00;;;30.08;;
3307;SDS011;1666;48.898;9.182;2022-12-18T08:06:34;65.63;;;29.48;;
3307;SDS011;1666;48.898;9.182;2022-12-18T08:09:04;60.42;;;28.38;;
3307;SDS011;1666;48.898;9.182;2022-12-18T08:11:35;60.55;;;28.40;;
3307;SDS011;1666;48.898;9.182;2022-12-18T08:14:05;66.25;;;30.55;;
3307;SDS011;1666;48.898;9.182;2022-12-18T08:16:37;64.72;;;28.73;;
3307;SDS011;1666;48.898;9.182;2022-12-18T08:19:10;64.15;;;29.35;;
3307;SDS011;1666;48.898;9.182;2022-12-18T08:21:40;56.13;;;29.42;;
3307;SDS011;1666;48.898;9.182;2022-12-18T08:24:10;60.33;;;28.42;;
3307;SDS011;1666;48.898;9.182;2022-12-18T08:26:40;59.28;;;28.48;;
3307;SDS011;1666;48.898;9.182;2022-12-18T08:29:30;63.22;;;29.83;;
3307;SDS011;1666;48.898;9.182;2022-12-18T08:32:02;61.92;;;31.33;;
3307;SDS011;1666;48.898;9.182;2022-12-18T08:34:33;59.65;;;28.65;;
3307;SDS011;1666;48.898;9.182;2022-12-18T08:37:03;59.85;;;28.90;;
3307;SDS011;1666;48.898;9.182;2022-12-18T08:39:33;61.60;;;30.33;;
3307;SDS011;1666;48.898;9.182;2022-12-18T08:42:03;61.17;;;29.77;;
3307;SDS011;1666;48.898;9.182;2022-12-18T08:44:45;60.35;;;29.25;;
3307;SDS011;1666;48.898;9.182;2022-12-18T08:47:18;56.80;;;29.02;;
3307;SDS011;1666;48.898;9.182;2022-12-18T08:49:48;59.15;;;28.50;;
3307;SDS011;1666;48.898;9.182;2022-12-18T08:52:18;61.80;;;29.05;;
3307;SDS011;1666;48.898;9.182;2022-12-18T08:54:48;62.92;;;28.45;;
3307;SDS011;1666;48.898;9.182;2022-12-18T08:57:18;65.95;;;28.83;;
3307;SDS011;1666;48.898;9.182;2022-12-18T08:59:47;63.38;;;29.40;;
3307;SDS011;1666;48.898;9.182;2022-12-18T09:02:20;57.75;;;28.15;;
3307;SDS011;1666;48.898;9.182;2022-12-18T09:04:50;61.05;;;28.38;;
3307;SDS011;1666;48.898;9.182;2022-12-18T09:07:23;58.67;;;30.08;;
3307;SDS011;1666;48.898;9.182;2022-12-18T09:09:53;63.67;;;29.85;;
3307;SDS011;1666;48.898;9.182;2022-12-18T09:12:23;58.70;;;28.48;;
3307;SDS011;1666;48.898;9.182;2022-12-18T09:14:52;63.22;;;29.40;;
3307;SDS011;1666;48.898;9.182;2022-12-18T09:17:25;63.42;;;30.02;;
3307;SDS011;1666;48.898;9.182;2022-12-18T09:19:55;62.17;;;28.52;;
3307;SDS011;1666;48.898;9.182;2022-12-18T09:22:25;58.92;;;27.88;;
3307;SDS011;1666;48.898;9.182;2022-12-18T09:24:55;60.58;;;28.90;;
3307;SDS011;1666;48.898;9.182;2022-12-18T09:27:25;62.78;;;30.70;;
3307;SDS011;1666;48.898;9.182;2022-12-18T09:29:54;57.65;;;27.70;;
3307;SDS011;1666;48.898;9.182;2022-12-18T09:32:27;64.22;;;29.73;;
3307;SDS011;1666;48.898;9.182;2022-12-18T09:34:57;60.45;;;29.58;;
3307;SDS011;1666;48.898;9.182;2022-12-18T09:37:27;63.33;;;28.92;;
3307;SDS011;1666;48.898;9.182;2022-12-18T09:39:57;61.97;;;28.95;;
3307;SDS011;1666;48.898;9.182;2022-12-18T09:42:27;56.00;;;28.33;;
3307;SDS011;1666;48.898;9.182;2022-12-18T09:44:57;59.25;;;28.75;;
3307;SDS011;1666;48.898;9.182;2022-12-18T09:47:32;67.60;;;29.35;;
3307;SDS011;1666;48.898;9.182;2022-12-18T09:50:06;59.83;;;28.50;;
3307;SDS011;1666;48.898;9.182;2022-12-18T09:52:53;63.50;;;29.00;;
3307;SDS011;1666;48.898;9.182;2022-12-18T09:55:26;56.65;;;27.55;;
3307;SDS011;1666;48.898;9.182;2022-12-18T09:58:05;55.00;;;26.63;;
3307;SDS011;1666;48.898;9.182;2022-12-18T10:00:42;57.40;;;27.05;;
3307;SDS011;1666;48.898;9.182;2022-12-18T10:03:15;60.92;;;28.35;;
3307;SDS011;1666;48.898;9.182;2022-12-18T10:05:50;62.45;;;27.88;;
3307;SDS011;1666;48.898;9.182;2022-12-18T10:08:30;64.55;;;27.80;;
3307;SDS011;1666;48.898;9.182;2022-12-18T10:11:19;58.33;;;26.38;;
3307;SDS011;1666;48.898;9.182;2022-12-18T10:13:58;60.45;;;27.35;;
3307;SDS011;1666;48.898;9.182;2022-12-18T10:16:36;61.15;;;27.35;;
3307;SDS011;1666;48.898;9.182;2022-12-18T10:19:22;60.08;;;26.13;;
3307;SDS011;1666;48.898;9.182;2022-12-18T10:22:01;65.75;;;28.63;;
3307;SDS011;1666;48.898;9.182;2022-12-18T10:24:38;55.35;;;25.67;;
3307;SDS011;1666;48.898;9.182;2022-12-18T10:27:14;59.40;;;27.35;;
3307;SDS011;1666;48.898;9.182;2022-12-18T10:29:45;60.03;;;26.83;;
3307;SDS011;1666;48.898;9.182;2022-12-18T10:32:16;56.90;;;25.63;;
3307;SDS011;1666;48.898;9.182;2022-12-18T10:34:52;63.25;;;27.98;;
3307;SDS011;1666;48.898;9.182;2022-12-18T10:37:27;60.08;;;26.58;;
3307;SDS011;1666;48.898;9.182;2022-12-18T10:40:11;58.97;;;26.95;;
3307;SDS011;1666;48.898;9.182;2022-12-18T10:42:50;60.67;;;27.67;;
3307;SDS011;1666;48.898;9.182;2022-12-18T10:45:33;55.47;;;24.40;;
3307;SDS011;1666;48.898;9.182;2022-12-18T10:48:03;54.13;;;24.83;;
3307;SDS011;1666;48.898;9.182;2022-12-18T10:50:36;61.40;;;27.15;;
3307;SDS011;1666;48.898;9.182;2022-12-18T10:53:27;55.33;;;25.55;;
3307;SDS011;1666;48.898;9.182;2022-12-18T10:55:59;60.20;;;26.33;;
3307;SDS011;1666;48.898;9.182;2022-12-18T10:58:30;59.50;;;25.90;;
3307;SDS011;1666;48.898;9.182;2022-12-18T11:01:08;51.83;;;24.70;;
3307;SDS011;1666;48.898;9.182;2022-12-18T11:03:40;54.28;;;24.88;;
3307;SDS011;1666;48.898;9.182;2022-12-18T11:06:15;58.28;;;26.35;;
3307;SDS011;1666;48.898;9.182;2022-12-18T11:08:56;57.25;;;24.67;;
3307;SDS011;1666;48.898;9.182;2022-12-18T11:11:34;49.80;;;24.15;;
3307;SDS011;1666;48.898;9.182;2022-12-18T11:14:06;55.13;;;25.05;;
3307;SDS011;1666;48.898;9.182;2022-12-18T11:16:46;57.17;;;24.35;;
3307;SDS011;1666;48.898;9.182;2022-12-18T11:19:37;49.88;;;22.55;;
3307;SDS011;1666;48.898;9.182;2022-12-18T11:22:20;52.58;;;23.92;;
3307;SDS011;1666;48.898;9.182;2022-12-18T11:24:53;51.03;;;22.00;;
3307;SDS011;1666;48.898;9.182;2022-12-18T11:27:49;48.75;;;24.45;;
3307;SDS011;1666;48.898;9.182;2022-12-18T11:30:25;53.58;;;24.95;;
3307;SDS011;1666;48.898;9.182;2022-12-18T11:32:59;52.97;;;24.20;;
3307;SDS011;1666;48.898;9.182;2022-12-18T11:35:35;50.70;;;23.58;;
3307;SDS011;1666;48.898;9.182;2022-12-18T11:38:20;58.90;;;24.75;;
3307;SDS011;1666;48.898;9.182;2022-12-18T11:40:54;49.17;;;23.55;;
3307;SDS011;1666;48.898;9.182;2022-12-18T11:43:28;56.75;;;25.40;;
3307;SDS011;1666;48.898;9.182;2022-12-18T11:46:02;49.13;;;23.23;;
3307;SDS011;1666;48.898;9.182;2022-12-18T11:48:44;49.70;;;24.15;;
3307;SDS011;1666;48.898;9.182;2022-12-18T11:51:20;61.25;;;26.13;;
3307;SDS011;1666;48.898;9.182;2022-12-18T11:53:58;48.22;;;24.00;;
3307;SDS011;1666;48.898;9.182;2022-12-18T11:56:30;53.85;;;23.75;;
3307;SDS011;1666;48.898;9.182;2022-12-18T11:59:07;48.83;;;23.27;;
3307;SDS011;1666;48.898;9.182;2022-12-18T12:01:46;49.55;;;23.80;;
3307;SDS011;1666;48.898;9.182;2022-12-18T12:04:26;51.75;;;23.88;;
3307;SDS011;1666;48.898;9.182;2022-12-18T12:09:56;53.75;;;24.50;;
3307;SDS011;1666;48.898;9.182;2022-12-18T12:12:35;53.63;;;24.40;;
3307;SDS011;1666;48.898;9.182;2022-12-18T12:15:23;52.55;;;23.70;;
3307;SDS011;1666;48.898;9.182;2022-12-18T12:18:00;51.47;;;25.23;;
3307;SDS011;1666;48.898;9.182;2022-12-18T12:20:40;51.00;;;22.45;;
3307;SDS011;1666;48.898;9.182;2022-12-18T12:23:20;50.08;;;24.63;;
3307;SDS011;1666;48.898;9.182;2022-12-18T12:26:04;49.08;;;23.58;;
3307;SDS011;1666;48.898;9.182;2022-12-18T12:28:41;51.22;;;22.65;;
3307;SDS011;1666;48.898;9.182;2022-12-18T12:31:24;50.17;;;23.13;;
3307;SDS011;1666;48.898;9.182;2022-12-18T12:34:04;50.78;;;23.38;;
3307;SDS011;1666;48.898;9.182;2022-12-18T12:36:46;53.15;;;23.30;;
3307;SDS011;1666;48.898;9.182;2022-12-18T12:39:37;45.67;;;21.05;;
3307;SDS011;1666;48.898;9.182;2022-12-18T12:42:15;45.25;;;22.17;;
3307;SDS011;1666;48.898;9.182;2022-12-18T12:45:05;46.38;;;23.67;;
3307;SDS011;1666;48.898;9.182;2022-12-18T12:47:43;49.85;;;23.77;;
3307;SDS011;1666;48.898;9.182;2022-12-18T12:50:16;49.30;;;23.65;;
3307;SDS011;1666;48.898;9.182;2022-12-18T12:52:49;48.78;;;24.55;;
3307;SDS011;1666;48.898;9.182;2022-12-18T12:55:22;52.78;;;24.17;;
3307;SDS011;1666;48.898;9.182;2022-12-18T12:58:01;54.65;;;25.08;;
3307;SDS011;1666;48.898;9.182;2022-12-18T13:00:39;50.13;;;24.38;;
3307;SDS011;1666;48.898;9.182;2022-12-18T13:03:15;47.33;;;23.25;;
3307;SDS011;1666;48.898;9.182;2022-12-18T13:06:03;48.53;;;22.77;;
3307;SDS011;1666;48.898;9.182;2022-12-18T13:08:51;49.20;;;22.48;;
3307;SDS011;1666;48.898;9.182;2022-12-18T13:11:31;50.13;;;23.08;;
3307;SDS011;1666;48.898;9.182;2022-12-18T13:14:29;48.17;;;22.77;;
3307;SDS011;1666;48.898;9.182;2022-12-18T13:20:09;45.38;;;23.20;;
3307;SDS011;1666;48.898;9.182;2022-12-18T13:22:43;49.20;;;22.42;;
3307;SDS011;1666;48.898;9.182;2022-12-18T13:25:28;50.78;;;22.50;;
3307;SDS011;1666;48.898;9.182;2022-12-18T13:28:07;50.08;;;22.80;;
3307;SDS011;1666;48.898;9.182;2022-12-18T13:33:38;48.08;;;22.48;;
3307;SDS011;1666;48.898;9.182;2022-12-18T13:36:33;45.33;;;21.60;;
3307;SDS011;1666;48.898;9.182;2022-12-18T13:48:20;49.55;;;22.73;;
3307;SDS011;1666;48.898;9.182;2022-12-18T13:50:59;49.67;;;22.50;;
3307;SDS011;1666;48.898;9.182;2022-12-18T13:53:36;48.53;;;22.77;;
3307;SDS011;1666;48.898;9.182;2022-12-18T13:56:15;45.33;;;22.85;;
3307;SDS011;1666;48.898;9.182;2022-12-18T13:58:47;50.55;;;22.90;;
3307;SDS011;1666;48.898;9.182;2022-12-18T14:01:43;47.75;;;21.42;;
3307;SDS011;1666;48.898;9.182;2022-12-18T14:04:25;44.50;;;21.23;;
3307;SDS011;1666;48.898;9.182;2022-12-18T14:06:57;52.78;;;23.33;;
3307;SDS011;1666;48.898;9.182;2022-12-18T14:12:06;50.13;;;21.80;;
3307;SDS011;1666;48.898;9.182;2022-12-18T14:14:55;46.70;;;21.75;;
3307;SDS011;1666;48.898;9.182;2022-12-18T14:17:25;45.88;;;23.17;;
3307;SDS011;1666;48.898;9.182;2022-12-18T14:19:59;49.22;;;23.33;;
3307;SDS011;1666;48.898;9.182;2022-12-18T14:22:29;49.65;;;23.98;;
3307;SDS011;1666;48.898;9.182;2022-12-18T14:27:47;47.88;;;23.85;;
3307;SDS011;1666;48.898;9.182;2022-12-18T14:30:25;49.08;;;23.30;;
3307;SDS011;1666;48.898;9.182;2022-12-18T14:33:01;56.72;;;24.58;;
3307;SDS011;1666;48.898;9.182;2022-12-18T14:35:35;48.25;;;22.70;;
3307;SDS011;1666;48.898;9.182;2022-12-18T14:38:20;52.00;;;23.85;;
3307;SDS011;1666;48.898;9.182;2022-12-18T14:40:52;51.30;;;24.55;;
3307;SDS011;1666;48.898;9.182;2022-12-18T14:43:22;52.67;;;25.38;;
3307;SDS011;1666;48.898;9.182;2022-12-18T14:45:52;54.55;;;25.50;;
3307;SDS011;1666;48.898;9.182;2022-12-18T14:48:30;59.03;;;26.70;;
3307;SDS011;1666;48.898;9.182;2022-12-18T14:51:14;53.03;;;24.17;;
3307;SDS011;1666;48.898;9.182;2022-12-18T14:53:46;56.45;;;25.95;;
3307;SDS011;1666;48.898;9.182;2022-12-18T14:56:21;52.70;;;26.42;;
3307;SDS011;1666;48.898;9.182;2022-12-18T14:58:52;56.53;;;24.95;;
3307;SDS011;1666;48.898;9.182;2022-12-18T15:01:25;52.45;;;26.25;;
3307;SDS011;1666;48.898;9.182;2022-12-18T15:03:57;52.25;;;25.33;;
3307;SDS011;1666;48.898;9.182;2022-12-18T15:06:33;51.53;;;23.80;;
3307;SDS011;1666;48.898;9.182;2022-12-18T15:09:20;51.92;;;24.60;;
3307;SDS011;1666;48.898;9.182;2022-12-18T15:11:54;57.67;;;25.02;;
3307;SDS011;1666;48.898;9.182;2022-12-18T15:14:32;50.63;;;24.75;;
3307;SDS011;1666;48.898;9.182;2022-12-18T15:17:05;54.28;;;24.73;;
3307;SDS011;1666;48.898;9.182;2022-12-18T15:19:43;55.70;;;25.70;;
3307;SDS011;1666;48.898;9.182;2022-12-18T15:22:20;53.70;;;25.77;;
3307;SDS011;1666;48.898;9.182;2022-12-18T15:24:53;58.63;;;27.20;;
3307;SDS011;1666;48.898;9.182;2022-12-18T15:27:31;56.70;;;25.80;;
3307;SDS011;1666;48.898;9.182;2022-12-18T15:30:20;54.92;;;26.92;;
3307;SDS011;1666;48.898;9.182;2022-12-18T15:32:52;53.75;;;25.85;;
3307;SDS011;1666;48.898;9.182;2022-12-18T15:35:42;59.00;;;27.52;;
3307;SDS011;1666;48.898;9.182;2022-12-18T15:38:15;61.78;;;27.08;;
3307;SDS011;1666;48.898;9.182;2022-12-18T15:40:45;60.80;;;27.90;;
3307;SDS011;1666;48.898;9.182;2022-12-18T15:43:14;53.97;;;27.10;;
3307;SDS011;1666;48.898;9.182;2022-12-18T15:45:57;59.65;;;27.75;;
3307;SDS011;1666;48.898;9.182;2022-12-18T15:48:27;54.35;;;25.10;;
3307;SDS011;1666;48.898;9.182;2022-12-18T15:50:57;62.15;;;27.65;;
3307;SDS011;1666;48.898;9.182;2022-12-18T15:53:30;60.50;;;27.73;;